createdAt,value
2023-02-02T00:00:34.212Z,7.77
2023-02-02T00:03:03.840Z,7.75
2023-02-02T00:05:33.426Z,7.73
2023-02-02T00:07:59.811Z,7.71
2023-02-02T00:10:30.550Z,7.72
2023-02-02T00:13:00.653Z,7.72
2023-02-02T00:18:13.038Z,7.73
2023-02-02T00:20:42.168Z,7.70
2023-02-02T00:23:08.612Z,7.70
2023-02-02T00:25:40.296Z,7.67
2023-02-02T00:28:06.721Z,7.66
2023-02-02T00:30:33.109Z,7.62
2023-02-02T00:32:59.553Z,7.62
2023-02-02T00:35:26.262Z,7.60
2023-02-02T00:37:56.886Z,7.62
2023-02-02T00:40:23.277Z,7.61
2023-02-02T00:42:53.369Z,7.60
2023-02-02T00:45:19.890Z,7.61
2023-02-02T00:47:50.033Z,7.60
2023-02-02T00:50:21.049Z,7.60
2023-02-02T00:55:29.303Z,7.64
2023-02-02T00:57:58.418Z,7.64
2023-02-02T01:00:26.364Z,7.64
2023-02-02T01:02:57.102Z,7.61
2023-02-02T01:05:23.891Z,7.60
2023-02-02T01:07:54.344Z,7.60
2023-02-02T01:10:20.684Z,7.58
2023-02-02T01:12:47.393Z,7.53
2023-02-02T01:15:13.958Z,7.52
2023-02-02T01:17:40.643Z,7.50
2023-02-02T01:20:11.468Z,7.46
2023-02-02T01:22:38.555Z,7.44
2023-02-02T01:25:05.387Z,7.39
2023-02-02T01:27:32.411Z,7.37
2023-02-02T01:30:01.373Z,7.37
2023-02-02T01:32:27.815Z,7.34
2023-02-02T01:34:54.210Z,7.31
2023-02-02T01:37:26.859Z,7.32
2023-02-02T01:39:53.240Z,7.36
2023-02-02T01:42:23.902Z,7.35
2023-02-02T01:44:55.988Z,7.33
2023-02-02T01:47:27.020Z,7.30
2023-02-02T01:49:55.187Z,7.27
2023-02-02T01:55:15.361Z,7.30
2023-02-02T01:57:49.170Z,7.28
2023-02-02T02:00:24.784Z,7.30
2023-02-02T02:03:06.911Z,7.27
2023-02-02T02:06:02.532Z,7.24
2023-02-02T02:08:59.428Z,7.22
2023-02-02T02:11:29.184Z,7.18
2023-02-02T02:14:17.268Z,7.16
2023-02-02T02:17:04.574Z,7.20
2023-02-02T02:19:33.765Z,7.19
2023-02-02T02:22:35.106Z,7.20
2023-02-02T02:25:56.721Z,7.20
2023-02-02T02:29:06.987Z,7.18
2023-02-02T02:31:33.440Z,7.17
2023-02-02T02:37:07.562Z,7.17
2023-02-02T02:40:08.391Z,7.15
2023-02-02T02:42:45.197Z,7.15
2023-02-02T02:45:20.714Z,7.12
2023-02-02T02:47:48.473Z,7.09
2023-02-02T02:50:17.268Z,7.06
2023-02-02T02:52:53.420Z,7.07
2023-02-02T02:55:20.913Z,7.08
2023-02-02T02:58:13.191Z,7.07
2023-02-02T03:00:48.727Z,7.09
2023-02-02T03:03:21.056Z,7.12
2023-02-02T03:06:13.217Z,7.18
2023-02-02T03:08:54.205Z,7.21
2023-02-02T03:11:21.286Z,7.23
2023-02-02T03:13:48.826Z,7.25
2023-02-02T03:16:18.958Z,7.27
2023-02-02T03:18:45.381Z,7.29
2023-02-02T03:21:12.133Z,7.31
2023-02-02T03:23:39.740Z,7.33
2023-02-02T03:26:09.229Z,7.35
2023-02-02T03:28:36.271Z,7.38
2023-02-02T03:33:44.898Z,7.41
2023-02-02T03:36:13.842Z,7.45
2023-02-02T03:38:40.236Z,7.46
2023-02-02T03:43:53.842Z,7.48
2023-02-02T03:46:23.076Z,7.50
2023-02-02T03:48:49.483Z,7.52
2023-02-02T03:51:18.034Z,7.52
2023-02-02T03:53:47.755Z,7.52
2023-02-02T03:56:21.461Z,7.57
2023-02-02T03:58:47.960Z,7.57
2023-02-02T04:01:15.021Z,7.58
2023-02-02T04:03:51.551Z,7.58
2023-02-02T04:06:23.126Z,7.58
2023-02-02T04:08:57.126Z,7.57
2023-02-02T04:11:26.779Z,7.58
2023-02-02T04:13:55.999Z,7.60
2023-02-02T04:16:22.430Z,7.60
2023-02-02T04:18:52.039Z,7.63
2023-02-02T04:21:21.471Z,7.64
2023-02-02T04:23:50.232Z,7.65
2023-02-02T04:26:16.857Z,7.68
2023-02-02T04:28:46.083Z,7.68
2023-02-02T04:31:12.664Z,7.67
2023-02-02T04:33:39.422Z,7.69
2023-02-02T04:36:08.474Z,7.71
2023-02-02T04:38:34.843Z,7.74
2023-02-02T04:41:15.933Z,7.76
2023-02-02T04:43:43.311Z,7.76
2023-02-02T04:46:10.271Z,7.77
2023-02-02T04:48:37.448Z,7.80
2023-02-02T04:51:11.406Z,7.83
2023-02-02T04:53:41.842Z,7.87
2023-02-02T04:56:34.396Z,7.87
2023-02-02T04:59:03.581Z,7.90
2023-02-02T05:01:30.761Z,7.92
2023-02-02T05:03:59.249Z,7.92
2023-02-02T05:06:28.869Z,7.93
2023-02-02T05:08:55.512Z,7.93
2023-02-02T05:11:24.978Z,7.94
2023-02-02T05:13:53.740Z,7.96
2023-02-02T05:16:29.205Z,7.94
2023-02-02T05:18:59.472Z,7.94
2023-02-02T05:21:29.887Z,7.95
2023-02-02T05:23:59.720Z,7.95
2023-02-02T05:29:09.193Z,7.94
2023-02-02T05:31:35.937Z,7.94
2023-02-02T05:34:06.891Z,7.95
2023-02-02T05:36:33.610Z,7.92
2023-02-02T05:39:06.043Z,7.94
2023-02-02T05:41:32.590Z,7.95
2023-02-02T05:44:03.311Z,7.94
2023-02-02T05:46:30.143Z,7.93
2023-02-02T05:49:06.374Z,7.91
2023-02-02T05:51:39.140Z,7.92
2023-02-02T05:54:09.747Z,7.94
2023-02-02T05:56:36.097Z,7.92
2023-02-02T06:01:47.016Z,7.89
2023-02-02T06:04:19.066Z,7.89
2023-02-02T06:06:46.577Z,7.88
2023-02-02T06:09:17.319Z,7.85
2023-02-02T06:11:46.645Z,7.86
2023-02-02T06:14:15.414Z,7.85
2023-02-02T06:16:42.169Z,7.85
2023-02-02T06:19:11.404Z,7.82
2023-02-02T06:21:40.457Z,7.81
2023-02-02T06:24:07.410Z,7.80
2023-02-02T06:26:33.987Z,7.78
2023-02-02T06:29:00.412Z,7.77
2023-02-02T06:31:27.382Z,7.77
2023-02-02T06:34:02.584Z,7.74
2023-02-02T06:39:12.315Z,7.73
2023-02-02T06:41:40.785Z,7.72
2023-02-02T06:44:07.337Z,7.72
2023-02-02T06:46:34.079Z,7.68
2023-02-02T06:49:01.631Z,7.70
2023-02-02T06:51:27.999Z,7.68
2023-02-02T06:53:54.421Z,7.68
2023-02-02T06:56:20.813Z,7.67
2023-02-02T06:58:47.198Z,7.66
2023-02-02T07:01:14.395Z,7.64
2023-02-02T07:03:48.731Z,7.65
2023-02-02T07:09:09.462Z,7.64
2023-02-02T07:11:42.232Z,7.64
2023-02-02T07:14:14.692Z,7.62
2023-02-02T07:16:44.181Z,7.62
2023-02-02T07:19:12.882Z,7.62
2023-02-02T07:21:45.502Z,7.61
2023-02-02T07:24:11.865Z,7.61
2023-02-02T07:26:39.434Z,7.63
2023-02-02T07:29:09.432Z,7.63
2023-02-02T07:31:36.915Z,7.63
2023-02-02T07:34:07.303Z,7.62
2023-02-02T07:36:33.854Z,7.60
2023-02-02T07:39:06.385Z,7.62
2023-02-02T07:41:36.931Z,7.62
2023-02-02T07:44:05.383Z,7.64
2023-02-02T07:46:42.547Z,7.64
2023-02-02T07:49:14.584Z,7.67
2023-02-02T07:51:47.673Z,7.69
2023-02-02T07:54:17.425Z,7.69
2023-02-02T07:56:46.943Z,7.69
2023-02-02T07:59:21.312Z,7.72
2023-02-02T08:01:47.925Z,7.74
2023-02-02T08:04:18.240Z,7.77
2023-02-02T08:06:51.089Z,7.78
2023-02-02T08:09:17.486Z,7.81
2023-02-02T08:11:46.391Z,7.83
2023-02-02T08:14:15.637Z,7.86
2023-02-02T08:16:42.063Z,7.91
2023-02-02T08:19:13.161Z,7.93
2023-02-02T08:21:39.549Z,7.93
2023-02-02T08:24:06.066Z,7.93
2023-02-02T08:26:35.747Z,7.93
2023-02-02T08:29:06.551Z,7.93
2023-02-02T08:31:40.850Z,7.97
2023-02-02T08:34:16.837Z,7.96
2023-02-02T08:36:43.286Z,7.97
2023-02-02T08:39:13.097Z,8.00
2023-02-02T08:41:45.647Z,8.03
2023-02-02T08:44:15.013Z,8.06
2023-02-02T08:46:43.868Z,8.11
2023-02-02T08:49:14.249Z,8.19
2023-02-02T08:51:41.786Z,8.23
2023-02-02T08:54:08.416Z,8.25
2023-02-02T08:56:42.166Z,8.26
2023-02-02T08:59:10.971Z,8.29
2023-02-02T09:01:37.726Z,8.37
2023-02-02T09:04:16.061Z,8.44
2023-02-02T09:06:45.799Z,8.46
2023-02-02T09:09:21.345Z,8.51
2023-02-02T09:11:48.445Z,8.50
2023-02-02T09:14:14.986Z,8.58
2023-02-02T09:16:50.403Z,8.60
2023-02-02T09:19:17.216Z,8.62
2023-02-02T09:21:53.733Z,8.69
2023-02-02T09:24:20.084Z,8.75
2023-02-02T09:26:57.108Z,8.77
2023-02-02T09:29:23.477Z,8.80
2023-02-02T09:31:53.699Z,8.77
2023-02-02T09:34:20.230Z,8.75
2023-02-02T09:36:47.400Z,8.75
2023-02-02T09:39:18.303Z,8.71
2023-02-02T09:42:06.592Z,8.66
2023-02-02T09:44:51.374Z,8.71
2023-02-02T09:47:53.105Z,8.77
2023-02-02T09:50:50.516Z,8.79
2023-02-02T09:53:59.423Z,8.75
2023-02-02T09:56:41.428Z,8.75
2023-02-02T09:59:27.809Z,8.73
2023-02-02T10:02:10.002Z,8.73
2023-02-02T10:04:43.460Z,8.77
2023-02-02T10:07:23.717Z,8.80
2023-02-02T10:10:17.801Z,8.86
2023-02-02T10:12:56.860Z,8.87
2023-02-02T10:15:38.964Z,8.83
2023-02-02T10:18:39.373Z,8.80
2023-02-02T10:21:21.615Z,8.76
2023-02-02T10:23:50.852Z,8.76
2023-02-02T10:26:25.465Z,8.81
2023-02-02T10:29:16.801Z,8.91
2023-02-02T10:32:27.926Z,8.97
2023-02-02T10:35:20.679Z,8.96
2023-02-02T10:38:18.839Z,9.01
2023-02-02T10:41:19.820Z,9.10
2023-02-02T10:44:24.905Z,9.04
2023-02-02T10:47:02.776Z,9.11
2023-02-02T10:52:24.928Z,9.19
2023-02-02T10:55:10.168Z,9.12
2023-02-02T10:58:02.615Z,9.05
2023-02-02T11:00:51.325Z,9.10
2023-02-02T11:03:23.574Z,9.13
2023-02-02T11:06:08.630Z,9.10
2023-02-02T11:08:41.998Z,9.00
2023-02-02T11:11:17.496Z,9.00
2023-02-02T11:14:09.630Z,8.99
2023-02-02T11:16:44.236Z,9.00
2023-02-02T11:19:16.678Z,9.01
2023-02-02T11:21:49.009Z,9.03
2023-02-02T11:24:19.269Z,9.01
2023-02-02T11:26:47.650Z,9.06
2023-02-02T11:29:29.947Z,9.13
2023-02-02T11:32:01.239Z,9.20
2023-02-02T11:34:30.533Z,9.20
2023-02-02T11:40:32.345Z,9.24
2023-02-02T11:43:28.349Z,9.20
2023-02-02T11:46:02.590Z,9.13
2023-02-02T11:48:38.950Z,9.16
2023-02-02T11:51:30.689Z,9.24
2023-02-02T11:54:40.342Z,9.31
2023-02-02T11:57:21.027Z,9.29
2023-02-02T12:00:10.760Z,9.24
2023-02-02T12:02:46.831Z,9.23
2023-02-02T12:05:34.881Z,9.23
2023-02-02T12:08:05.664Z,9.19
2023-02-02T12:10:52.721Z,9.23
2023-02-02T12:13:23.345Z,9.19
2023-02-02T12:16:20.140Z,9.17
2023-02-02T12:19:20.282Z,9.10
2023-02-02T12:22:27.405Z,9.11
2023-02-02T12:25:23.946Z,9.06
2023-02-02T12:28:11.402Z,9.09
2023-02-02T12:30:56.554Z,9.15
2023-02-02T12:33:53.249Z,9.10
2023-02-02T12:36:30.089Z,9.03
2023-02-02T12:39:00.526Z,9.01
2023-02-02T12:42:24.120Z,8.99
2023-02-02T12:45:34.546Z,9.00
2023-02-02T12:48:54.045Z,8.98
2023-02-02T12:51:37.231Z,9.00
2023-02-02T12:54:52.134Z,8.99
2023-02-02T12:57:50.333Z,8.97
2023-02-02T13:00:40.004Z,8.91
2023-02-02T13:03:45.766Z,8.89
2023-02-02T13:06:36.180Z,8.83
2023-02-02T13:09:28.147Z,8.79
2023-02-02T13:12:03.535Z,8.75
2023-02-02T13:14:48.264Z,8.76
2023-02-02T13:17:29.746Z,8.72
2023-02-02T13:20:03.296Z,8.71
2023-02-02T13:22:39.457Z,8.69
2023-02-02T13:25:16.834Z,8.69
2023-02-02T13:27:45.989Z,8.68
2023-02-02T13:30:35.473Z,8.65
2023-02-02T13:33:22.401Z,8.63
2023-02-02T13:35:58.411Z,8.59
2023-02-02T13:38:31.050Z,8.59
2023-02-02T13:41:01.155Z,8.63
2023-02-02T13:43:53.883Z,8.61
2023-02-02T13:47:09.520Z,8.57
2023-02-02T13:49:41.551Z,8.54
2023-02-02T13:52:29.000Z,8.54
2023-02-02T13:55:23.495Z,8.57
2023-02-02T13:58:05.095Z,8.62
2023-02-02T14:00:37.777Z,8.64
2023-02-02T14:03:55.505Z,8.66
2023-02-02T14:06:27.225Z,8.59
2023-02-02T14:09:02.627Z,8.62
2023-02-02T14:11:35.362Z,8.64
2023-02-02T14:14:31.883Z,8.63
2023-02-02T14:17:06.904Z,8.61
2023-02-02T14:19:33.186Z,8.58
2023-02-02T14:24:57.436Z,8.59
2023-02-02T14:27:57.385Z,8.57
2023-02-02T14:30:55.100Z,8.54
2023-02-02T14:33:21.427Z,8.53
2023-02-02T14:35:47.789Z,8.51
2023-02-02T14:38:46.435Z,8.51
2023-02-02T14:41:50.367Z,8.51
2023-02-02T14:44:22.410Z,8.54
2023-02-02T14:46:51.790Z,8.52
2023-02-02T14:49:25.521Z,8.48
2023-02-02T14:51:55.941Z,8.43
2023-02-02T14:54:53.085Z,8.41
2023-02-02T14:57:30.015Z,8.40
2023-02-02T15:00:01.471Z,8.37
2023-02-02T15:02:39.134Z,8.34
2023-02-02T15:05:41.102Z,8.32
2023-02-02T15:08:26.492Z,8.30
2023-02-02T15:10:58.516Z,8.32
2023-02-02T15:13:30.044Z,8.33
2023-02-02T15:16:11.699Z,8.35
2023-02-02T15:18:47.389Z,8.34
2023-02-02T15:21:23.978Z,8.32
2023-02-02T15:23:50.673Z,8.34
2023-02-02T15:26:31.202Z,8.37
2023-02-02T15:29:09.023Z,8.36
2023-02-02T15:31:56.061Z,8.35
2023-02-02T15:34:22.449Z,8.37
2023-02-02T15:36:58.815Z,8.41
2023-02-02T15:39:43.290Z,8.41
2023-02-02T15:42:47.752Z,8.45
2023-02-02T15:45:36.144Z,8.45
2023-02-02T15:48:28.487Z,8.46
2023-02-02T15:50:58.992Z,8.47
2023-02-02T15:53:51.149Z,8.50
2023-02-02T15:56:23.401Z,8.52
2023-02-02T15:58:55.177Z,8.49
2023-02-02T16:01:27.116Z,8.46
2023-02-02T16:04:00.968Z,8.48
2023-02-02T16:06:28.892Z,8.45
2023-02-02T16:08:58.848Z,8.42
2023-02-02T16:11:30.532Z,8.40
2023-02-02T16:14:03.046Z,8.40
2023-02-02T16:16:50.522Z,8.37
2023-02-02T16:19:25.549Z,8.37
2023-02-02T16:22:06.080Z,8.36
2023-02-02T16:24:41.599Z,8.36
2023-02-02T16:27:15.403Z,8.38
2023-02-02T16:29:42.634Z,8.36
2023-02-02T16:32:32.816Z,8.36
2023-02-02T16:35:04.600Z,8.37
2023-02-02T16:37:36.393Z,8.35
2023-02-02T16:40:33.277Z,8.37
2023-02-02T16:43:20.453Z,8.34
2023-02-02T16:45:53.353Z,8.33
2023-02-02T16:48:43.975Z,8.32
2023-02-02T16:51:16.322Z,8.32
2023-02-02T16:53:45.004Z,8.30
2023-02-02T16:56:29.468Z,8.30
2023-02-02T16:59:00.435Z,8.29
2023-02-02T17:01:40.924Z,8.27
2023-02-02T17:04:19.603Z,8.26
2023-02-02T17:06:53.632Z,8.27
2023-02-02T17:09:45.050Z,8.30
2023-02-02T17:12:32.209Z,8.31
2023-02-02T17:15:07.890Z,8.32
2023-02-02T17:17:37.586Z,8.32
2023-02-02T17:20:05.242Z,8.31
2023-02-02T17:22:43.495Z,8.32
2023-02-02T17:25:21.237Z,8.31
2023-02-02T17:27:55.783Z,8.30
2023-02-02T17:30:26.045Z,8.30
2023-02-02T17:33:03.684Z,8.30
2023-02-02T17:35:43.457Z,8.29
2023-02-02T17:38:19.986Z,8.30
2023-02-02T17:40:50.975Z,8.30
2023-02-02T17:43:17.588Z,8.31
2023-02-02T17:45:47.959Z,8.32
2023-02-02T17:48:14.616Z,8.31
2023-02-02T17:50:44.304Z,8.32
2023-02-02T17:53:18.413Z,8.31
2023-02-02T17:56:04.482Z,8.32
2023-02-02T17:58:44.330Z,8.31
2023-02-02T18:01:15.929Z,8.33
2023-02-02T18:03:46.097Z,8.33
2023-02-02T18:06:28.787Z,8.33
2023-02-02T18:08:55.468Z,8.33
2023-02-02T18:11:28.001Z,8.35
2023-02-02T18:13:54.358Z,8.35
2023-02-02T18:16:23.886Z,8.36
2023-02-02T18:18:54.136Z,8.36
2023-02-02T18:21:25.644Z,8.36
2023-02-02T18:23:55.065Z,8.37
2023-02-02T18:26:22.655Z,8.38
2023-02-02T18:28:59.302Z,8.37
2023-02-02T18:31:27.961Z,8.37
2023-02-02T18:33:59.514Z,8.37
2023-02-02T18:36:25.929Z,8.39
2023-02-02T18:38:53.794Z,8.39
2023-02-02T18:41:23.773Z,8.39
2023-02-02T18:43:56.763Z,8.40
2023-02-02T18:46:23.313Z,8.41
2023-02-02T18:48:49.788Z,8.41
2023-02-02T18:51:20.086Z,8.42
2023-02-02T18:53:54.867Z,8.41
2023-02-02T18:56:23.757Z,8.41
2023-02-02T18:58:51.758Z,8.40
2023-02-02T19:01:24.955Z,8.39
2023-02-02T19:03:59.414Z,8.37
2023-02-02T19:06:46.057Z,8.35
2023-02-02T19:09:17.263Z,8.33
2023-02-02T19:11:49.976Z,8.32
2023-02-02T19:14:26.532Z,8.32
2023-02-02T19:17:10.498Z,8.32
2023-02-02T19:22:30.527Z,8.25
2023-02-02T19:25:04.978Z,8.18
2023-02-02T19:27:36.159Z,8.11
2023-02-02T19:30:05.958Z,8.07
2023-02-02T19:32:43.393Z,8.03
2023-02-02T19:35:25.697Z,8.02
2023-02-02T19:38:01.672Z,8.03
2023-02-02T19:40:30.427Z,8.04
2023-02-02T19:43:24.511Z,8.04
2023-02-02T19:45:52.772Z,8.01
2023-02-02T19:48:27.484Z,8.02
2023-02-02T19:53:42.426Z,7.99
2023-02-02T19:56:38.032Z,7.97
2023-02-02T19:59:17.701Z,7.95
2023-02-02T20:01:53.895Z,7.94
2023-02-02T20:04:20.296Z,7.92
2023-02-02T20:06:59.050Z,7.92
2023-02-02T20:09:38.212Z,7.90
2023-02-02T20:12:25.355Z,7.92
2023-02-02T20:14:52.094Z,7.93
2023-02-02T20:17:37.205Z,7.93
2023-02-02T20:20:28.943Z,7.95
2023-02-02T20:23:34.728Z,7.95
2023-02-02T20:26:07.624Z,7.98
2023-02-02T20:28:47.046Z,8.00
2023-02-02T20:34:08.932Z,8.03
2023-02-02T20:36:44.876Z,8.06
2023-02-02T20:39:36.231Z,8.07
2023-02-02T20:42:08.018Z,8.08
2023-02-02T20:44:38.440Z,8.11
2023-02-02T20:47:05.639Z,8.10
2023-02-02T20:49:35.318Z,8.14
2023-02-02T20:58:01.156Z,8.24
2023-02-02T21:00:28.014Z,8.28
2023-02-02T21:02:55.569Z,8.31
2023-02-02T21:05:25.535Z,8.35
2023-02-02T21:07:54.837Z,8.39
2023-02-02T21:10:28.482Z,8.41
2023-02-02T21:12:59.042Z,8.43
2023-02-02T21:18:09.137Z,8.49
2023-02-02T21:20:38.031Z,8.51
2023-02-02T21:23:04.507Z,8.52
2023-02-02T21:25:34.184Z,8.54
2023-02-02T21:28:06.712Z,8.54
2023-02-02T21:30:35.611Z,8.56
2023-02-02T21:33:09.434Z,8.58
2023-02-02T21:35:35.856Z,8.59
2023-02-02T21:38:13.872Z,8.63
2023-02-02T21:40:45.818Z,8.66
2023-02-02T21:43:17.862Z,8.67
2023-02-02T21:45:53.961Z,8.66
2023-02-02T21:48:29.149Z,8.68
2023-02-02T21:51:00.728Z,8.69
2023-02-02T21:53:41.122Z,8.72
2023-02-02T21:56:25.722Z,8.75
2023-02-02T21:59:00.769Z,8.78
2023-02-02T22:01:38.107Z,8.79
2023-02-02T22:04:15.417Z,8.83
2023-02-02T22:06:46.829Z,8.83
2023-02-02T22:09:13.410Z,8.83
2023-02-02T22:11:50.644Z,8.86
2023-02-02T22:14:24.968Z,8.88
2023-02-02T22:16:55.740Z,8.88
2023-02-02T22:19:38.401Z,8.89
2023-02-02T22:22:16.841Z,8.91
2023-02-02T22:24:56.767Z,8.91
2023-02-02T22:27:27.589Z,8.93
2023-02-02T22:30:25.264Z,8.94
2023-02-02T22:32:54.964Z,8.96
2023-02-02T22:35:24.500Z,8.97
2023-02-02T22:37:54.182Z,8.99
2023-02-02T22:40:27.189Z,8.98
2023-02-02T22:43:01.942Z,8.98
2023-02-02T22:45:28.830Z,8.98
2023-02-02T22:47:55.451Z,8.97
2023-02-02T22:50:25.950Z,8.96
2023-02-02T22:52:52.517Z,8.96
2023-02-02T22:55:19.674Z,8.96
2023-02-02T22:57:55.292Z,8.96
2023-02-02T23:00:51.311Z,8.93
2023-02-02T23:03:21.800Z,8.94
2023-02-02T23:06:09.205Z,8.94
2023-02-02T23:08:57.813Z,8.90
2023-02-02T23:11:24.278Z,8.90
2023-02-02T23:13:50.642Z,8.88
2023-02-02T23:16:17.015Z,8.87
2023-02-02T23:18:43.394Z,8.88
2023-02-02T23:21:09.731Z,8.85
2023-02-02T23:23:36.081Z,8.84
2023-02-02T23:26:05.821Z,8.87
2023-02-02T23:28:35.029Z,8.86
2023-02-02T23:31:04.432Z,8.85
2023-02-02T23:33:36.579Z,8.86
2023-02-02T23:36:03.014Z,8.84
2023-02-02T23:41:17.188Z,8.84
2023-02-02T23:43:47.447Z,8.85
2023-02-02T23:46:22.846Z,8.84
2023-02-02T23:48:49.474Z,8.85
2023-02-02T23:51:28.298Z,8.86
2023-02-02T23:53:57.867Z,8.86
2023-02-02T23:56:30.492Z,8.86
2023-02-02T23:58:56.851Z,8.86
